createdAt,value
2023-04-16T00:04:23.314Z,10.14
2023-04-16T00:09:23.028Z,9.61
2023-04-16T00:14:23.037Z,10.11
2023-04-16T00:19:23.005Z,9.87
2023-04-16T00:24:22.910Z,10.12
2023-04-16T00:29:22.848Z,10.18
2023-04-16T00:34:22.803Z,10.25
2023-04-16T00:39:22.844Z,10.25
2023-04-16T00:44:22.717Z,10.20
2023-04-16T00:49:32.533Z,10.11
2023-04-16T00:54:22.610Z,10.25
2023-04-16T00:59:22.604Z,10.29
2023-04-16T01:04:22.654Z,10.15
2023-04-16T01:09:22.516Z,10.23
2023-04-16T01:14:22.515Z,10.29
2023-04-16T01:19:22.320Z,10.29
2023-04-16T01:24:22.294Z,10.32
2023-04-16T01:29:22.212Z,10.26
2023-04-16T01:34:22.233Z,10.11
2023-04-16T01:39:22.320Z,9.94
2023-04-16T01:44:22.168Z,10.15
2023-04-16T01:49:23.099Z,10.17
2023-04-16T01:54:23.132Z,10.08
2023-04-16T01:59:22.222Z,10.25
2023-04-16T02:04:21.943Z,10.26
2023-04-16T02:09:21.791Z,10.05
2023-04-16T02:14:21.810Z,10.20
2023-04-16T02:19:21.740Z,10.34
2023-04-16T02:24:21.674Z,10.18
2023-04-16T02:29:21.607Z,10.33
2023-04-16T02:34:21.506Z,10.08
2023-04-16T02:39:21.550Z,10.30
2023-04-16T02:44:21.426Z,10.17
2023-04-16T02:49:21.379Z,10.27
2023-04-16T02:54:21.319Z,10.18
2023-04-16T02:59:21.463Z,10.27
2023-04-16T03:04:21.400Z,10.48
2023-04-16T03:09:21.328Z,10.18
2023-04-16T03:14:21.083Z,10.30
2023-04-16T03:19:23.186Z,10.41
2023-04-16T03:24:21.003Z,10.44
2023-04-16T03:29:20.920Z,10.38
2023-04-16T03:34:20.902Z,10.45
2023-04-16T03:39:20.807Z,10.51
2023-04-16T03:44:20.796Z,10.53
2023-04-16T03:49:20.725Z,10.52
2023-04-16T03:54:22.592Z,10.55
2023-04-16T03:59:20.628Z,10.47
2023-04-16T04:04:20.774Z,10.30
2023-04-16T04:09:20.667Z,10.48
2023-04-16T04:14:20.481Z,10.70
2023-04-16T04:19:20.514Z,10.29
2023-04-16T04:24:20.576Z,10.44
2023-04-16T04:29:20.294Z,10.66
2023-04-16T04:34:20.310Z,10.29
2023-04-16T04:39:20.205Z,10.53
2023-04-16T04:44:20.162Z,10.59
2023-04-16T04:49:20.062Z,10.63
2023-04-16T04:54:20.031Z,10.34
2023-04-16T04:59:19.994Z,10.44
2023-04-16T05:04:20.011Z,10.41
2023-04-16T05:09:19.827Z,10.12
2023-04-16T05:14:19.836Z,10.51
2023-04-16T05:19:19.747Z,10.74
2023-04-16T05:24:28.558Z,11.06
2023-04-16T05:29:19.642Z,10.73
2023-04-16T05:34:19.625Z,10.78
2023-04-16T05:39:19.544Z,10.84
2023-04-16T05:44:19.521Z,10.66
2023-04-16T05:49:19.580Z,10.73
2023-04-16T05:54:19.587Z,10.91
2023-04-16T05:59:19.335Z,10.88
2023-04-16T06:04:19.409Z,10.84
2023-04-16T06:09:19.280Z,10.82
2023-04-16T06:14:19.212Z,10.66
2023-04-16T06:19:19.141Z,10.61
2023-04-16T06:24:19.106Z,10.76
2023-04-16T06:29:19.004Z,10.73
2023-04-16T06:34:18.961Z,10.82
2023-04-16T06:39:18.900Z,10.56
2023-04-16T06:44:19.013Z,10.73
2023-04-16T06:49:18.778Z,10.68
2023-04-16T06:54:18.748Z,10.55
2023-04-16T06:59:18.710Z,10.63
2023-04-16T07:04:18.795Z,10.70
2023-04-16T07:09:18.721Z,10.76
2023-04-16T07:14:18.537Z,10.88
2023-04-16T07:19:18.504Z,11.02
2023-04-16T07:24:18.586Z,11.07
2023-04-16T07:29:18.295Z,11.06
2023-04-16T07:34:18.302Z,10.89
2023-04-16T07:39:18.286Z,11.19
2023-04-16T07:44:18.275Z,11.35
2023-04-16T07:49:28.352Z,11.75
2023-04-16T07:54:18.611Z,11.43
2023-04-16T07:59:22.772Z,11.52
2023-04-16T08:04:19.874Z,11.58
2023-04-16T08:09:17.968Z,11.67
2023-04-16T08:14:18.009Z,11.64
2023-04-16T08:19:17.992Z,11.83
2023-04-16T08:24:17.941Z,11.46
2023-04-16T08:29:17.798Z,11.91
2023-04-16T08:34:17.810Z,11.82
2023-04-16T08:39:17.674Z,12.14
2023-04-16T08:44:17.617Z,12.04
2023-04-16T08:49:17.537Z,12.42
2023-04-16T08:54:17.534Z,12.60
2023-04-16T08:59:17.526Z,12.05
2023-04-16T09:04:17.478Z,12.53
2023-04-16T09:09:17.348Z,12.13
2023-04-16T09:14:17.440Z,12.78
2023-04-16T09:19:17.428Z,13.05
2023-04-16T09:24:17.324Z,12.71
2023-04-16T09:29:25.576Z,12.64
2023-04-16T09:34:17.026Z,12.92
2023-04-16T09:39:17.018Z,12.85
2023-04-16T09:44:16.929Z,12.83
2023-04-16T09:49:17.015Z,13.17
2023-04-16T09:54:16.958Z,12.92
2023-04-16T09:59:16.841Z,13.01
2023-04-16T10:04:17.868Z,13.82
2023-04-16T10:09:16.627Z,13.39
2023-04-16T10:14:16.537Z,14.58
2023-04-16T10:19:16.639Z,14.83
2023-04-16T10:24:16.538Z,14.68
2023-04-16T10:29:16.605Z,14.33
2023-04-16T10:34:16.638Z,14.32
2023-04-16T10:39:17.205Z,14.58
2023-04-16T10:44:18.566Z,14.61
2023-04-16T10:49:16.585Z,14.77
2023-04-16T10:54:16.270Z,15.29
2023-04-16T10:59:16.236Z,15.35
2023-04-16T11:04:16.250Z,15.34
2023-04-16T11:09:16.258Z,15.67
2023-04-16T11:14:16.276Z,15.27
2023-04-16T11:19:15.855Z,15.74
2023-04-16T11:24:15.973Z,15.54
2023-04-16T11:29:15.786Z,16.07
2023-04-16T11:34:15.752Z,15.78
2023-04-16T11:39:15.646Z,15.60
2023-04-16T11:44:15.675Z,14.95
2023-04-16T11:49:15.680Z,14.92
2023-04-16T11:54:16.657Z,14.47
2023-04-16T11:59:15.690Z,14.73
2023-04-16T12:04:15.736Z,15.07
2023-04-16T12:09:16.598Z,15.21
2023-04-16T12:14:15.380Z,15.21
2023-04-16T12:19:15.313Z,15.01
2023-04-16T12:24:24.095Z,14.72
2023-04-16T12:29:15.129Z,14.68
2023-04-16T12:34:15.075Z,15.60
2023-04-16T12:39:14.951Z,15.90
2023-04-16T12:44:14.940Z,15.82
2023-04-16T12:49:14.958Z,15.89
2023-04-16T12:54:14.899Z,15.56
2023-04-16T12:59:14.829Z,15.06
2023-04-16T13:04:14.904Z,15.96
2023-04-16T13:09:14.630Z,15.83
2023-04-16T13:14:14.582Z,15.76
2023-04-16T13:19:14.559Z,16.42
2023-04-16T13:24:14.622Z,16.34
2023-04-16T13:29:14.534Z,16.79
2023-04-16T13:34:14.495Z,16.35
2023-04-16T13:39:14.475Z,16.21
2023-04-16T13:44:14.275Z,15.57
2023-04-16T13:49:14.198Z,15.35
2023-04-16T13:54:14.158Z,15.29
2023-04-16T13:59:14.226Z,15.07
2023-04-16T14:04:14.204Z,15.44
2023-04-16T14:09:14.062Z,15.20
2023-04-16T14:14:14.018Z,15.20
2023-04-16T14:19:13.914Z,15.49
2023-04-16T14:24:13.907Z,15.38
2023-04-16T14:29:13.787Z,15.28
2023-04-16T14:34:13.708Z,15.50
2023-04-16T14:39:13.886Z,15.46
2023-04-16T14:44:13.604Z,15.49
2023-04-16T14:49:13.790Z,15.67
2023-04-16T14:54:13.514Z,16.08
2023-04-16T14:59:13.446Z,16.57
2023-04-16T15:04:13.459Z,16.31
2023-04-16T15:09:13.433Z,15.82
2023-04-16T15:14:13.448Z,16.02
2023-04-16T15:19:13.229Z,15.59
2023-04-16T15:24:13.328Z,16.15
2023-04-16T15:29:14.266Z,15.53
2023-04-16T15:34:13.187Z,16.35
2023-04-16T15:39:13.189Z,16.02
2023-04-16T15:44:12.979Z,16.45
2023-04-16T15:49:12.868Z,16.23
2023-04-16T15:54:12.859Z,16.41
2023-04-16T15:59:13.095Z,16.07
2023-04-16T16:04:12.908Z,16.38
2023-04-16T16:09:12.970Z,16.81
2023-04-16T16:14:13.823Z,16.46
2023-04-16T16:19:33.715Z,16.58
2023-04-16T16:24:12.505Z,16.52
2023-04-16T16:29:12.630Z,16.78
2023-04-16T16:34:19.965Z,16.14
2023-04-16T16:39:13.370Z,16.63
2023-04-16T16:44:12.333Z,16.71
2023-04-16T16:49:12.522Z,16.30
2023-04-16T16:54:12.333Z,16.42
2023-04-16T16:59:12.355Z,16.35
2023-04-16T17:04:12.161Z,15.94
2023-04-16T17:09:12.180Z,16.17
2023-04-16T17:14:11.954Z,15.72
2023-04-16T17:19:12.107Z,15.39
2023-04-16T17:24:12.230Z,15.54
2023-04-16T17:29:11.808Z,15.34
2023-04-16T17:34:11.918Z,15.25
2023-04-16T17:39:11.777Z,15.31
2023-04-16T17:44:12.024Z,15.25
2023-04-16T17:49:11.630Z,15.17
2023-04-16T17:54:11.957Z,15.02
2023-04-16T17:59:11.675Z,15.03
2023-04-16T18:04:11.918Z,14.52
2023-04-16T18:09:11.383Z,14.80
2023-04-16T18:14:11.824Z,14.55
2023-04-16T18:19:11.375Z,14.61
2023-04-16T18:24:12.524Z,14.14
2023-04-16T18:29:12.373Z,14.32
2023-04-16T18:34:11.358Z,14.17
2023-04-16T18:39:11.056Z,14.07
2023-04-16T18:44:11.004Z,14.20
2023-04-16T18:49:11.133Z,14.21
2023-04-16T18:54:10.955Z,13.77
2023-04-16T18:59:11.205Z,14.04
2023-04-16T19:04:10.957Z,14.22
2023-04-16T19:09:11.720Z,14.02
2023-04-16T19:14:10.682Z,13.96
2023-04-16T19:19:10.822Z,13.95
2023-04-16T19:24:10.546Z,13.91
2023-04-16T19:29:10.769Z,14.06
2023-04-16T19:34:10.497Z,13.92
2023-04-16T19:39:11.654Z,13.70
2023-04-16T19:44:10.375Z,13.87
2023-04-16T19:49:10.630Z,13.77
2023-04-16T19:54:10.237Z,13.66
2023-04-16T19:59:11.415Z,13.75
2023-04-16T20:04:10.280Z,13.70
2023-04-16T20:09:10.315Z,13.63
2023-04-16T20:14:10.033Z,13.42
2023-04-16T20:19:10.331Z,13.46
2023-04-16T20:24:09.914Z,13.63
2023-04-16T20:29:10.295Z,13.64
2023-04-16T20:34:09.776Z,13.63
2023-04-16T20:39:09.994Z,13.62
2023-04-16T20:44:09.693Z,13.67
2023-04-16T20:49:09.960Z,13.69
2023-04-16T20:54:09.572Z,13.57
2023-04-16T20:59:09.860Z,13.26
2023-04-16T21:04:09.765Z,13.15
2023-04-16T21:09:09.597Z,13.08
2023-04-16T21:14:09.393Z,13.03
2023-04-16T21:19:12.755Z,13.10
2023-04-16T21:24:10.249Z,12.92
2023-04-16T21:29:09.310Z,12.89
2023-04-16T21:34:09.223Z,12.83
2023-04-16T21:39:09.243Z,12.60
2023-04-16T21:44:09.015Z,12.74
2023-04-16T21:49:09.270Z,13.04
2023-04-16T21:54:08.930Z,13.11
2023-04-16T21:59:09.008Z,12.85
2023-04-16T22:04:08.853Z,12.83
2023-04-16T22:09:08.900Z,12.70
2023-04-16T22:14:08.785Z,12.77
2023-04-16T22:19:08.752Z,12.45
2023-04-16T22:24:08.570Z,12.52
2023-04-16T22:29:08.631Z,12.74
2023-04-16T22:34:08.470Z,12.65
2023-04-16T22:39:08.542Z,12.64
2023-04-16T22:44:08.381Z,12.41
2023-04-16T22:49:08.331Z,12.45
2023-04-16T22:54:08.285Z,12.64
2023-04-16T22:59:08.197Z,12.39
2023-04-16T23:04:08.197Z,12.49
2023-04-16T23:09:08.112Z,12.38
2023-04-16T23:14:08.145Z,12.56
2023-04-16T23:19:07.976Z,12.64
2023-04-16T23:24:07.973Z,12.35
2023-04-16T23:29:07.919Z,12.59
2023-04-16T23:34:07.917Z,12.77
2023-04-16T23:39:11.349Z,12.64
2023-04-16T23:44:07.738Z,12.54
2023-04-16T23:49:07.668Z,12.59
2023-04-16T23:54:07.634Z,12.67
2023-04-16T23:59:07.556Z,12.78
